Time;durP1;ratioP1;P1;durP2;ratioP2;P2;SDS_P1;SDS_P2;PMS_P1;PMS_P2;Temp;Humidity;BMP_temperature;BMP_pressure;BME280_temperature;BME280_humidity;BME280_pressure;Samples;Min_cycle;Max_cycle;Signal;HPM_P1;HPM_P2
2022/03/03 00:01:40;;;;;;;;;66.00;47.50;;;;;;;;2;261076045;261076045;-80
2022/03/03 00:14:00;;;;;;;;;54.00;45.00;;;;;;;;2;261076348;261076348;-79
2022/03/03 00:22:15;;;;;;;;;64.50;50.50;;;;;;;;2;261076945;261076945;-81
2022/03/03 00:31:16;;;;;;;;;62.00;41.00;;;;;;;;2;261076076;261076076;-79
2022/03/03 00:39:31;;;;;;;;;69.00;47.00;;;;;;;;2;261077568;261077568;-79
2022/03/03 00:48:32;;;;;;;;;64.50;43.00;;;;;;;;2;261075262;261075262;-79
2022/03/03 00:56:47;;;;;;;;;51.00;43.50;;;;;;;;2;261075327;261075327;-79
2022/03/03 01:05:47;;;;;;;;;68.50;51.50;;;;;;;;2;261075572;261075572;-79
2022/03/03 01:14:03;;;;;;;;;66.50;54.50;;;;;;;;2;261073901;261073901;-79
2022/03/03 01:23:03;;;;;;;;;71.50;50.00;;;;;;;;2;261074063;261074063;-79
2022/03/03 01:31:19;;;;;;;;;71.00;47.00;;;;;;;;2;261077979;261077979;-80
2022/03/03 01:40:22;;;;;;;;;67.50;49.50;;;;;;;;2;261076012;261076012;-80
2022/03/03 01:48:37;;;;;;;;;62.00;45.00;;;;;;;;2;261076570;261076570;-80
2022/03/03 01:57:38;;;;;;;;;60.00;49.00;;;;;;;;2;261075122;261075122;-79
2022/03/03 02:05:53;;;;;;;;;54.00;44.00;;;;;;;;2;261074116;261074116;-80
2022/03/03 02:14:54;;;;;;;;;53.50;39.50;;;;;;;;2;261075297;261075297;-79
2022/03/03 02:23:09;;;;;;;;;64.00;37.50;;;;;;;;2;261076116;261076116;-79
2022/03/03 02:32:10;;;;;;;;;59.50;43.00;;;;;;;;2;261074952;261074952;-79
2022/03/03 02:40:25;;;;;;;;;64.00;46.50;;;;;;;;2;261073244;261073244;-79
2022/03/03 02:49:26;;;;;;;;;64.00;47.50;;;;;;;;2;261073987;261073987;-79
2022/03/03 02:57:53;;;;;;;;;60.00;46.50;;;;;;;;2;261074890;261074890;-79
2022/03/03 03:06:53;;;;;;;;;70.50;52.50;;;;;;;;2;261074749;261074749;-80
2022/03/03 03:15:09;;;;;;;;;56.50;46.00;;;;;;;;2;261076347;261076347;-79
2022/03/03 03:24:09;;;;;;;;;69.00;47.00;;;;;;;;2;261077227;261077227;-79
2022/03/03 03:32:25;;;;;;;;;69.50;46.00;;;;;;;;2;261075206;261075206;-80
2022/03/03 03:41:25;;;;;;;;;67.00;51.00;;;;;;;;2;261076147;261076147;-79
2022/03/03 03:49:41;;;;;;;;;57.50;46.50;;;;;;;;2;261077758;261077758;-79
2022/03/03 03:58:41;;;;;;;;;53.50;45.50;;;;;;;;2;261076772;261076772;-79
2022/03/03 04:06:56;;;;;;;;;62.50;45.50;;;;;;;;2;261072132;261072132;-79
2022/03/03 04:15:57;;;;;;;;;47.00;40.00;;;;;;;;2;261075513;261075513;-79
2022/03/03 04:24:12;;;;;;;;;57.50;41.50;;;;;;;;2;261075722;261075722;-79
2022/03/03 04:33:13;;;;;;;;;59.00;45.00;;;;;;;;2;261077465;261077465;-78
2022/03/03 04:41:29;;;;;;;;;58.50;43.50;;;;;;;;2;261075215;261075215;-79
2022/03/03 04:50:30;;;;;;;;;56.50;45.00;;;;;;;;2;261075964;261075964;-78
2022/03/03 04:58:45;;;;;;;;;47.50;40.00;;;;;;;;2;261076041;261076041;-80
2022/03/03 05:07:46;;;;;;;;;55.00;45.50;;;;;;;;2;261073672;261073672;-79
2022/03/03 05:16:03;;;;;;;;;59.00;40.00;;;;;;;;2;261073480;261073480;-80
2022/03/03 05:25:03;;;;;;;;;60.00;41.50;;;;;;;;2;261076146;261076146;-79
2022/03/03 05:33:20;;;;;;;;;57.00;41.50;;;;;;;;2;261075006;261075006;-79
2022/03/03 05:42:22;;;;;;;;;40.00;34.00;;;;;;;;2;261072261;261072261;-78
2022/03/03 05:50:37;;;;;;;;;59.50;42.50;;;;;;;;2;261074192;261074192;-78
2022/03/03 05:59:41;;;;;;;;;53.50;31.00;;;;;;;;2;261078376;261078376;-79
2022/03/03 06:08:03;;;;;;;;;49.50;42.50;;;;;;;;2;261079450;261079450;-78
2022/03/03 06:17:04;;;;;;;;;42.00;36.50;;;;;;;;2;261076843;261076843;-79
2022/03/03 06:25:20;;;;;;;;;51.50;28.50;;;;;;;;2;261073483;261073483;-78
2022/03/03 06:34:20;;;;;;;;;30.50;29.50;;;;;;;;2;261075962;261075962;-79
2022/03/03 06:42:35;;;;;;;;;36.50;29.00;;;;;;;;2;261077074;261077074;-79
2022/03/03 06:51:40;;;;;;;;;46.50;40.00;;;;;;;;2;261075784;261075784;-79
2022/03/03 06:59:59;;;;;;;;;48.00;31.50;;;;;;;;2;261076418;261076418;-79
2022/03/03 07:09:00;;;;;;;;;35.00;33.00;;;;;;;;2;261075140;261075140;-78
2022/03/03 07:17:23;;;;;;;;;47.50;30.50;;;;;;;;2;261076783;261076783;-79
2022/03/03 07:26:25;;;;;;;;;44.00;35.00;;;;;;;;2;261073667;261073667;-79
2022/03/03 07:34:41;;;;;;;;;56.00;42.00;;;;;;;;2;261075527;261075527;-79
2022/03/03 07:43:42;;;;;;;;;35.50;29.00;;;;;;;;2;261077835;261077835;-79
2022/03/03 07:51:58;;;;;;;;;59.50;35.50;;;;;;;;2;261073626;261073626;-79
2022/03/03 08:00:59;;;;;;;;;50.00;37.00;;;;;;;;2;261075523;261075523;-79
2022/03/03 08:09:15;;;;;;;;;49.50;36.00;;;;;;;;2;261076200;261076200;-79
2022/03/03 08:18:15;;;;;;;;;34.50;32.50;;;;;;;;2;261075705;261075705;-79
2022/03/03 08:26:32;;;;;;;;;52.00;37.50;;;;;;;;2;261077860;261077860;-78
2022/03/03 08:35:36;;;;;;;;;37.00;30.50;;;;;;;;2;261074082;261074082;-78
2022/03/03 08:43:52;;;;;;;;;19.00;0.00;;;;;;;;2;261077511;261077511;-79
2022/03/03 08:52:54;;;;;;;;;39.00;35.50;;;;;;;;2;261077637;261077637;-78
2022/03/03 09:01:10;;;;;;;;;39.00;34.00;;;;;;;;2;261080890;261080890;-78
2022/03/03 09:10:11;;;;;;;;;39.00;33.50;;;;;;;;2;261076644;261076644;-79
2022/03/03 09:18:26;;;;;;;;;51.50;34.00;;;;;;;;2;261076695;261076695;-79
2022/03/03 09:27:27;;;;;;;;;42.50;34.00;;;;;;;;2;261079464;261079464;-78
2022/03/03 09:35:42;;;;;;;;;57.00;38.50;;;;;;;;2;261078093;261078093;-79
2022/03/03 09:44:42;;;;;;;;;36.50;29.50;;;;;;;;2;261074113;261074113;-79
2022/03/03 09:52:58;;;;;;;;;55.50;39.50;;;;;;;;2;261075055;261075055;-79
2022/03/03 10:02:05;;;;;;;;;50.50;41.00;;;;;;;;2;261075518;261075518;-80
2022/03/03 10:10:21;;;;;;;;;39.00;33.50;;;;;;;;2;261075428;261075428;-80
2022/03/03 10:19:21;;;;;;;;;49.50;35.00;;;;;;;;2;261076925;261076925;-79
2022/03/03 10:27:37;;;;;;;;;50.50;32.00;;;;;;;;2;261076501;261076501;-80
2022/03/03 10:36:37;;;;;;;;;36.50;31.00;;;;;;;;2;261075598;261075598;-79
2022/03/03 10:45:11;;;;;;;;;58.50;40.50;;;;;;;;2;261076131;261076131;-80
2022/03/03 10:54:11;;;;;;;;;49.50;42.00;;;;;;;;2;261073865;261073865;-79
2022/03/03 11:02:28;;;;;;;;;45.00;31.50;;;;;;;;2;261077322;261077322;-79
2022/03/03 11:11:28;;;;;;;;;39.00;31.50;;;;;;;;2;261073146;261073146;-78
2022/03/03 11:19:44;;;;;;;;;35.50;26.50;;;;;;;;2;261077860;261077860;-79
2022/03/03 11:28:54;;;;;;;;;32.00;28.50;;;;;;;;2;261073256;261073256;-79
2022/03/03 11:37:10;;;;;;;;;50.50;29.50;;;;;;;;2;261074487;261074487;-79
2022/03/03 11:46:10;;;;;;;;;46.00;28.00;;;;;;;;2;261076007;261076007;-79
2022/03/03 11:54:26;;;;;;;;;51.50;30.50;;;;;;;;2;261071459;261071459;-79
2022/03/03 12:03:26;;;;;;;;;37.00;33.50;;;;;;;;2;261077708;261077708;-79
2022/03/03 12:11:42;;;;;;;;;40.00;34.00;;;;;;;;2;261075387;261075387;-79
2022/03/03 12:20:45;;;;;;;;;52.00;38.50;;;;;;;;2;261078685;261078685;-79
2022/03/03 12:29:21;;;;;;;;;41.00;26.50;;;;;;;;2;261072958;261072958;-79
2022/03/03 12:38:21;;;;;;;;;43.50;33.00;;;;;;;;2;261076858;261076858;-79
2022/03/03 12:46:37;;;;;;;;;36.00;33.50;;;;;;;;2;261077573;261077573;-79
2022/03/03 12:55:38;;;;;;;;;37.00;33.00;;;;;;;;2;261075462;261075462;-78
2022/03/03 13:03:53;;;;;;;;;40.00;27.50;;;;;;;;2;261083421;261083421;-78
2022/03/03 13:12:55;;;;;;;;;47.00;29.00;;;;;;;;2;261075397;261075397;-78
2022/03/03 13:21:11;;;;;;;;;36.00;26.00;;;;;;;;2;261076085;261076085;-77
2022/03/03 13:30:12;;;;;;;;;31.50;28.00;;;;;;;;2;261078276;261078276;-78
2022/03/03 13:38:27;;;;;;;;;22.00;22.00;;;;;;;;2;261078246;261078246;-79
2022/03/03 13:47:29;;;;;;;;;15.50;15.50;;;;;;;;2;261075753;261075753;-79
2022/03/03 13:55:46;;;;;;;;;20.00;20.00;;;;;;;;2;261077687;261077687;-79
2022/03/03 14:04:56;;;;;;;;;37.00;24.00;;;;;;;;2;261075782;261075782;-79
2022/03/03 14:13:12;;;;;;;;;22.00;22.00;;;;;;;;2;261076668;261076668;-79
2022/03/03 14:22:16;;;;;;;;;32.00;20.00;;;;;;;;2;261074867;261074867;-79
2022/03/03 14:30:32;;;;;;;;;35.50;23.50;;;;;;;;2;261078651;261078651;-78
2022/03/03 14:39:33;;;;;;;;;29.50;21.50;;;;;;;;2;261075140;261075140;-79
2022/03/03 14:47:49;;;;;;;;;36.00;31.50;;;;;;;;2;261075820;261075820;-79
2022/03/03 14:56:49;;;;;;;;;28.50;23.50;;;;;;;;2;261075288;261075288;-79
2022/03/03 15:05:05;;;;;;;;;39.50;28.00;;;;;;;;2;261077280;261077280;-79
2022/03/03 15:14:05;;;;;;;;;20.00;20.00;;;;;;;;2;261078958;261078958;-79
2022/03/03 15:22:21;;;;;;;;;40.50;20.00;;;;;;;;2;261075703;261075703;-79
2022/03/03 15:31:21;;;;;;;;;44.50;29.00;;;;;;;;2;261076609;261076609;-79
2022/03/03 15:39:37;;;;;;;;;36.50;23.00;;;;;;;;2;261077579;261077579;-79
2022/03/03 15:48:37;;;;;;;;;24.50;15.50;;;;;;;;2;261077488;261077488;-79
2022/03/03 15:56:53;;;;;;;;;10.50;10.50;;;;;;;;2;261078508;261078508;-79
2022/03/03 16:05:53;;;;;;;;;22.50;19.00;;;;;;;;2;261077476;261077476;-79
2022/03/03 16:14:09;;;;;;;;;16.00;16.00;;;;;;;;2;261077764;261077764;-79
2022/03/03 16:23:09;;;;;;;;;16.50;16.50;;;;;;;;2;261078640;261078640;-79
2022/03/03 16:31:44;;;;;;;;;24.00;12.00;;;;;;;;2;261072615;261072615;-79
2022/03/03 16:40:44;;;;;;;;;8.00;8.00;;;;;;;;2;261076272;261076272;-79
2022/03/03 16:49:00;;;;;;;;;13.50;13.50;;;;;;;;2;261073061;261073061;-79
2022/03/03 16:58:01;;;;;;;;;9.50;9.50;;;;;;;;2;261076312;261076312;-79
2022/03/03 17:06:16;;;;;;;;;9.50;9.50;;;;;;;;2;261075073;261075073;-78
2022/03/03 17:15:18;;;;;;;;;15.00;15.00;;;;;;;;2;261076922;261076922;-80
2022/03/03 17:23:34;;;;;;;;;7.50;7.50;;;;;;;;2;261080412;261080412;-80
2022/03/03 17:32:34;;;;;;;;;8.50;8.50;;;;;;;;2;261075998;261075998;-79
2022/03/03 17:40:50;;;;;;;;;10.50;10.50;;;;;;;;2;261075077;261075077;-79
2022/03/03 17:49:51;;;;;;;;;9.50;9.50;;;;;;;;2;261074289;261074289;-80
2022/03/03 17:58:06;;;;;;;;;12.00;12.00;;;;;;;;2;261075281;261075281;-80
2022/03/03 18:07:07;;;;;;;;;10.00;10.00;;;;;;;;2;261082785;261082785;-80
2022/03/03 18:15:23;;;;;;;;;17.50;13.50;;;;;;;;2;261076369;261076369;-79
2022/03/03 18:24:24;;;;;;;;;30.50;18.50;;;;;;;;2;261075484;261075484;-79
2022/03/03 18:32:39;;;;;;;;;46.50;28.50;;;;;;;;2;261076878;261076878;-80
2022/03/03 18:41:40;;;;;;;;;19.50;17.50;;;;;;;;2;261076000;261076000;-80
2022/03/03 18:49:55;;;;;;;;;48.50;28.00;;;;;;;;2;261078481;261078481;-79
2022/03/03 18:58:55;;;;;;;;;26.50;25.00;;;;;;;;2;261075215;261075215;-80
2022/03/03 19:07:11;;;;;;;;;36.50;33.50;;;;;;;;2;261073955;261073955;-79
2022/03/03 19:16:11;;;;;;;;;33.50;28.00;;;;;;;;2;261073356;261073356;-79
2022/03/03 19:24:28;;;;;;;;;25.50;25.50;;;;;;;;2;261077735;261077735;-79
2022/03/03 19:42:06;;;;;;;;;34.50;27.50;;;;;;;;2;261075520;261075520;-79
2022/03/03 19:51:07;;;;;;;;;49.00;36.00;;;;;;;;2;261078877;261078877;-79
2022/03/03 19:59:22;;;;;;;;;33.50;32.00;;;;;;;;2;261076936;261076936;-79
2022/03/03 20:08:23;;;;;;;;;32.50;31.00;;;;;;;;2;261077589;261077589;-78
2022/03/03 20:16:38;;;;;;;;;44.50;32.50;;;;;;;;2;261076559;261076559;-78
2022/03/03 20:25:40;;;;;;;;;45.00;26.50;;;;;;;;2;261075478;261075478;-79
2022/03/03 20:33:55;;;;;;;;;50.50;33.00;;;;;;;;2;261077272;261077272;-79
2022/03/03 20:42:55;;;;;;;;;42.00;36.00;;;;;;;;2;261079561;261079561;-79
2022/03/03 20:51:11;;;;;;;;;28.00;27.50;;;;;;;;2;261077437;261077437;-80
2022/03/03 21:00:12;;;;;;;;;48.00;38.50;;;;;;;;2;261074762;261074762;-80
2022/03/03 21:08:27;;;;;;;;;66.50;42.00;;;;;;;;2;261078318;261078318;-79
2022/03/03 21:17:27;;;;;;;;;33.00;31.50;;;;;;;;2;261075687;261075687;-80
2022/03/03 21:25:43;;;;;;;;;37.50;34.50;;;;;;;;2;261076427;261076427;-80
2022/03/03 21:34:43;;;;;;;;;51.00;43.50;;;;;;;;2;261075509;261075509;-80
2022/03/03 21:42:59;;;;;;;;;34.50;32.50;;;;;;;;2;261078673;261078673;-80
2022/03/03 21:51:59;;;;;;;;;53.50;35.00;;;;;;;;2;261079101;261079101;-79
2022/03/03 22:00:15;;;;;;;;;50.50;35.00;;;;;;;;2;261078359;261078359;-80
2022/03/03 22:09:16;;;;;;;;;28.00;24.00;;;;;;;;2;261075838;261075838;-80
2022/03/03 22:17:32;;;;;;;;;17.50;17.50;;;;;;;;2;261077422;261077422;-80
2022/03/03 22:26:32;;;;;;;;;45.50;30.00;;;;;;;;2;261075835;261075835;-79
2022/03/03 22:34:48;;;;;;;;;24.50;20.50;;;;;;;;2;261081224;261081224;-80
2022/03/03 22:43:48;;;;;;;;;40.50;25.00;;;;;;;;2;261075497;261075497;-80
2022/03/03 22:52:15;;;;;;;;;48.50;26.50;;;;;;;;2;261078459;261078459;-79
2022/03/03 23:01:17;;;;;;;;;23.50;23.50;;;;;;;;2;261071354;261071354;-81
2022/03/03 23:09:32;;;;;;;;;40.50;33.50;;;;;;;;2;261079632;261079632;-80
2022/03/03 23:18:33;;;;;;;;;37.50;30.50;;;;;;;;2;261077345;261077345;-80
2022/03/03 23:26:49;;;;;;;;;56.00;36.50;;;;;;;;2;261076863;261076863;-79
2022/03/03 23:35:50;;;;;;;;;58.50;41.00;;;;;;;;2;261076935;261076935;-80
2022/03/03 23:44:06;;;;;;;;;32.50;31.00;;;;;;;;2;261076756;261076756;-80
2022/03/03 23:53:06;;;;;;;;;47.50;34.50;;;;;;;;2;261084323;261084323;-80
